Time;durP1;ratioP1;P1;durP2;ratioP2;P2;SDS_P1;SDS_P2;PMS_P1;PMS_P2;Temp;Humidity;BMP_temperature;BMP_pressure;BME280_temperature;BME280_humidity;BME280_pressure;Samples;Min_cycle;Max_cycle;Signal;HPM_P1;HPM_P2
2021/09/16 00:00:55;;;;;;;4.73;2.67;;;15.20;94.50;;;;;;2073104;28;20281;-65
2021/09/16 00:01:56;;;;;;;4.73;3.00;;;15.20;94.40;;;;;;2072958;28;20208;-67
2021/09/16 00:02:57;;;;;;;5.00;3.10;;;15.10;94.70;;;;;;2073112;28;20185;-66
2021/09/16 00:03:57;;;;;;;6.93;3.23;;;15.10;94.90;;;;;;2073275;28;20268;-65
2021/09/16 00:04:58;;;;;;;3.43;2.87;;;15.00;94.90;;;;;;2073160;28;20271;-67
2021/09/16 00:05:59;;;;;;;8.30;3.27;;;15.10;94.90;;;;;;2073009;28;20193;-65
2021/09/16 00:06:59;;;;;;;4.33;3.17;;;15.00;95.00;;;;;;2073148;28;20633;-65
2021/09/16 00:08:00;;;;;;;6.00;3.73;;;15.10;95.10;;;;;;2073324;28;20272;-66
2021/09/16 00:09:01;;;;;;;4.43;3.10;;;15.10;95.00;;;;;;2073060;28;20206;-66
2021/09/16 00:10:06;;;;;;;7.43;3.50;;;15.10;95.00;;;;;;2073192;28;20649;-66
2021/09/16 00:11:06;;;;;;;6.57;4.05;;;15.10;94.90;;;;;;2072840;28;20441;-66
2021/09/16 00:12:07;;;;;;;6.63;4.63;;;15.10;94.90;;;;;;2073021;28;20197;-65
2021/09/16 00:13:08;;;;;;;7.33;4.10;;;15.20;94.90;;;;;;2073028;28;20210;-66
2021/09/16 00:14:09;;;;;;;5.60;3.63;;;15.10;94.90;;;;;;2073187;28;20184;-65
2021/09/16 00:15:12;;;;;;;5.37;3.63;;;15.20;94.90;;;;;;2073306;28;20424;-65
2021/09/16 00:16:12;;;;;;;4.78;3.33;;;15.10;94.90;;;;;;2073117;28;20828;-66
2021/09/16 00:17:13;;;;;;;4.73;3.10;;;15.10;94.90;;;;;;2073230;28;20190;-65
2021/09/16 00:18:14;;;;;;;5.00;3.40;;;15.10;95.10;;;;;;2073125;28;20252;-65
2021/09/16 00:19:14;;;;;;;5.07;3.03;;;15.00;95.40;;;;;;2073148;28;20182;-67
2021/09/16 00:20:15;;;;;;;5.90;3.60;;;15.00;95.50;;;;;;2073199;28;20244;-65
2021/09/16 00:21:16;;;;;;;6.97;3.67;;;14.90;95.70;;;;;;2072825;28;20637;-65
2021/09/16 00:22:17;;;;;;;3.90;3.20;;;14.90;95.70;;;;;;2073065;28;20198;-66
2021/09/16 00:23:18;;;;;;;6.83;3.40;;;15.00;95.80;;;;;;2073022;28;20268;-65
2021/09/16 00:24:18;;;;;;;4.37;3.23;;;15.00;95.70;;;;;;2073057;28;20417;-66
2021/09/16 00:25:19;;;;;;;5.17;3.37;;;15.00;95.60;;;;;;2073001;28;20190;-65
2021/09/16 00:26:20;;;;;;;4.17;3.10;;;15.00;95.40;;;;;;2073092;28;20182;-65
2021/09/16 00:27:20;;;;;;;7.50;3.37;;;15.00;95.40;;;;;;2073195;28;20533;-67
2021/09/16 00:28:21;;;;;;;7.50;3.30;;;15.10;95.20;;;;;;2073061;28;20200;-65
2021/09/16 00:29:22;;;;;;;6.17;3.53;;;15.10;95.10;;;;;;2073096;28;20181;-65
2021/09/16 00:30:23;;;;;;;4.73;2.80;;;15.20;95.10;;;;;;2073389;28;20178;-67
2021/09/16 00:31:23;;;;;;;6.63;3.27;;;15.20;95.00;;;;;;2074328;28;20212;-66
2021/09/16 00:32:24;;;;;;;4.50;3.00;;;15.20;94.90;;;;;;2074444;28;20190;-65
2021/09/16 00:33:25;;;;;;;3.40;2.90;;;15.20;94.90;;;;;;2074480;28;20676;-67
2021/09/16 00:34:25;;;;;;;3.20;2.30;;;15.20;94.90;;;;;;2074643;28;20205;-65
2021/09/16 00:35:26;;;;;;;3.63;2.53;;;15.20;94.90;;;;;;2074651;28;20177;-65
2021/09/16 00:36:27;;;;;;;3.67;2.40;;;15.20;94.80;;;;;;2074642;28;20217;-65
2021/09/16 00:37:28;;;;;;;5.80;2.73;;;15.20;94.60;;;;;;2074605;28;20629;-66
2021/09/16 00:38:28;;;;;;;7.90;3.13;;;15.30;94.50;;;;;;2074660;28;20182;-66
2021/09/16 00:39:29;;;;;;;4.60;2.93;;;15.30;94.50;;;;;;2074527;28;20232;-66
2021/09/16 00:40:30;;;;;;;4.77;3.50;;;15.30;94.50;;;;;;2074640;28;20185;-66
2021/09/16 00:41:32;;;;;;;4.07;2.80;;;15.30;94.60;;;;;;2081948;28;20185;-66
2021/09/16 00:42:32;;;;;;;4.90;2.50;;;15.20;94.60;;;;;;2081817;28;20451;-66
2021/09/16 00:43:33;;;;;;;4.77;2.83;;;15.30;94.60;;;;;;2073930;28;21001;-67
2021/09/16 00:44:34;;;;;;;5.37;2.17;;;15.20;94.60;;;;;;2073820;28;20177;-66
2021/09/16 00:45:34;;;;;;;5.37;2.57;;;15.20;94.70;;;;;;2074574;28;20181;-66
2021/09/16 00:46:35;;;;;;;3.27;2.30;;;15.10;95.00;;;;;;2074517;28;20189;-67
2021/09/16 00:47:43;;;;;;;6.73;2.60;;;15.10;95.10;;;;;;2074540;28;20205;-66
2021/09/16 00:48:44;;;;;;;2.47;2.20;;;15.10;95.10;;;;;;2074510;28;20413;-67
2021/09/16 00:49:45;;;;;;;3.97;3.00;;;15.10;95.20;;;;;;2074480;28;20421;-65
2021/09/16 00:50:46;;;;;;;9.37;3.77;;;15.00;95.30;;;;;;2074419;28;20185;-66
2021/09/16 00:51:48;;;;;;;5.93;3.90;;;15.10;95.30;;;;;;2074307;28;20923;-66
2021/09/16 00:52:50;;;;;;;5.63;3.33;;;15.10;95.20;;;;;;2074431;28;20202;-66
2021/09/16 00:53:54;;;;;;;5.13;3.63;;;15.10;95.10;;;;;;2082130;28;20938;-66
2021/09/16 00:54:55;;;;;;;7.70;3.17;;;15.10;95.10;;;;;;2073685;28;20455;-65
2021/09/16 00:55:58;;;;;;;3.70;3.07;;;15.10;95.10;;;;;;2065790;28;20421;-67
2021/09/16 00:57:02;;;;;;;6.10;3.23;;;15.10;95.20;;;;;;2073920;28;20190;-65
2021/09/16 00:58:04;;;;;;;4.07;2.60;;;15.10;95.10;;;;;;2074575;28;20491;-66
2021/09/16 00:59:05;;;;;;;3.43;2.50;;;15.20;95.00;;;;;;2074532;28;20836;-65
2021/09/16 01:00:09;;;;;;;3.90;1.80;;;15.20;95.00;;;;;;2074530;28;20483;-66
2021/09/16 01:01:10;;;;;;;5.63;2.23;;;15.20;95.10;;;;;;2074129;28;20206;-65
2021/09/16 01:02:11;;;;;;;3.43;2.23;;;15.20;95.10;;;;;;2074518;28;20935;-65
2021/09/16 01:03:12;;;;;;;9.30;3.13;;;15.20;95.10;;;;;;2074071;28;20260;-66
2021/09/16 01:04:13;;;;;;;5.07;2.87;;;15.20;95.00;;;;;;2074003;28;20439;-65
2021/09/16 01:05:14;;;;;;;5.20;2.83;;;15.10;95.10;;;;;;2074470;28;20177;-65
2021/09/16 01:06:16;;;;;;;4.43;3.20;;;15.10;95.30;;;;;;2074333;28;20190;-65
2021/09/16 01:07:17;;;;;;;3.87;2.20;;;15.10;95.30;;;;;;2073672;28;20416;-65
2021/09/16 01:08:18;;;;;;;2.57;2.17;;;15.10;95.50;;;;;;2073747;28;20457;-66
2021/09/16 01:09:19;;;;;;;5.43;2.87;;;15.10;95.50;;;;;;2074400;28;20181;-65
2021/09/16 01:10:21;;;;;;;4.33;2.83;;;15.10;95.50;;;;;;2074329;28;20864;-66
2021/09/16 01:11:21;;;;;;;7.20;2.60;;;15.10;95.30;;;;;;2074177;28;20174;-65
2021/09/16 01:12:22;;;;;;;4.00;2.80;;;15.10;95.20;;;;;;2074253;28;20444;-66
2021/09/16 01:13:23;;;;;;;3.93;2.50;;;15.10;95.20;;;;;;2074369;28;20641;-66
2021/09/16 01:14:26;;;;;;;4.47;2.23;;;15.20;95.30;;;;;;2074281;28;20178;-65
2021/09/16 01:15:27;;;;;;;2.13;1.80;;;15.10;95.40;;;;;;2074269;28;20205;-65
2021/09/16 01:16:27;;;;;;;2.63;1.80;;;15.10;95.20;;;;;;2074286;28;20420;-65
2021/09/16 01:17:28;;;;;;;3.80;2.20;;;15.10;95.20;;;;;;2074259;28;20182;-65
2021/09/16 01:18:29;;;;;;;4.53;2.30;;;15.10;95.20;;;;;;2074376;28;20205;-65
2021/09/16 01:19:30;;;;;;;3.90;1.73;;;15.00;95.30;;;;;;2074286;28;20600;-65
2021/09/16 01:20:31;;;;;;;5.33;2.03;;;15.10;95.30;;;;;;2074325;28;20178;-65
2021/09/16 01:21:32;;;;;;;2.20;2.00;;;15.10;95.20;;;;;;2074225;28;20205;-66
2021/09/16 01:22:34;;;;;;;2.77;2.03;;;15.00;95.20;;;;;;2074146;28;20276;-66
2021/09/16 01:23:35;;;;;;;4.93;2.30;;;15.00;95.30;;;;;;2073559;28;21013;-65
2021/09/16 01:24:35;;;;;;;3.77;2.00;;;15.00;95.50;;;;;;2073819;28;20474;-65
2021/09/16 01:25:37;;;;;;;3.07;1.63;;;15.00;95.70;;;;;;2074273;28;20260;-66
2021/09/16 01:26:41;;;;;;;4.33;2.13;;;15.00;95.80;;;;;;2074323;28;20178;-66
2021/09/16 01:27:44;;;;;;;4.23;1.70;;;14.90;95.70;;;;;;2081782;28;20438;-65
2021/09/16 01:28:44;;;;;;;4.53;2.00;;;15.00;95.60;;;;;;2081606;28;20420;-65
2021/09/16 01:29:45;;;;;;;3.83;2.20;;;15.10;95.50;;;;;;2073527;28;20928;-65
2021/09/16 01:30:48;;;;;;;3.90;1.90;;;15.10;95.20;;;;;;2073597;28;20178;-65
2021/09/16 01:31:51;;;;;;;2.27;1.50;;;15.20;95.10;;;;;;2073762;28;20240;-65
2021/09/16 01:32:55;;;;;;;2.53;1.80;;;15.20;95.00;;;;;;2074102;28;20828;-65
2021/09/16 01:33:55;;;;;;;6.93;2.00;;;15.20;95.00;;;;;;2074155;28;20427;-65
2021/09/16 01:34:56;;;;;;;3.13;2.10;;;15.20;94.90;;;;;;2074213;28;20458;-65
2021/09/16 01:35:57;;;;;;;4.40;2.27;;;15.30;95.00;;;;;;2073555;28;20253;-65
2021/09/16 01:36:58;;;;;;;3.73;2.00;;;15.30;94.90;;;;;;2073621;28;20182;-65
2021/09/16 01:37:58;;;;;;;2.70;2.10;;;15.30;94.90;;;;;;2074146;28;20188;-66
2021/09/16 01:38:59;;;;;;;3.13;1.90;;;15.30;95.00;;;;;;2074215;28;20181;-65
2021/09/16 01:40:00;;;;;;;4.03;2.00;;;15.30;94.90;;;;;;2073376;28;20194;-66
2021/09/16 01:41:01;;;;;;;3.73;1.83;;;15.20;95.10;;;;;;2073259;28;20456;-65
2021/09/16 01:42:02;;;;;;;3.83;1.83;;;15.10;95.60;;;;;;2073060;28;20204;-65
2021/09/16 01:43:02;;;;;;;2.73;2.00;;;15.00;95.70;;;;;;2073834;28;20193;-65
2021/09/16 01:44:04;;;;;;;5.73;2.00;;;14.90;95.80;;;;;;2074259;28;20246;-66
2021/09/16 01:45:05;;;;;;;4.77;1.77;;;14.90;95.80;;;;;;2073443;28;20221;-67
2021/09/16 01:46:06;;;;;;;2.70;1.97;;;14.90;95.60;;;;;;2073472;28;20428;-65
2021/09/16 01:47:07;;;;;;;5.53;2.20;;;15.00;95.50;;;;;;2074014;28;20789;-65
2021/09/16 01:48:07;;;;;;;3.40;1.90;;;15.00;95.30;;;;;;2074275;28;20177;-66
2021/09/16 01:49:08;;;;;;;4.23;2.30;;;15.00;95.20;;;;;;2074140;28;20209;-66
2021/09/16 01:50:11;;;;;;;3.67;1.93;;;15.10;95.10;;;;;;2074007;28;20545;-66
2021/09/16 01:51:12;;;;;;;2.77;2.27;;;15.10;95.00;;;;;;2073086;28;20197;-65
2021/09/16 01:52:13;;;;;;;2.87;2.10;;;15.10;94.90;;;;;;2073363;28;20472;-66
2021/09/16 01:53:14;;;;;;;2.87;1.80;;;15.10;94.90;;;;;;2073971;28;20221;-65
2021/09/16 01:54:14;;;;;;;4.00;1.83;;;15.10;94.90;;;;;;2074244;28;20232;-65
2021/09/16 01:55:16;;;;;;;6.57;2.17;;;15.10;95.00;;;;;;2074156;28;20260;-65
2021/09/16 01:56:17;;;;;;;3.27;2.07;;;15.10;95.00;;;;;;2074041;28;20679;-65
2021/09/16 01:57:18;;;;;;;4.33;2.00;;;15.10;95.10;;;;;;2074011;28;20421;-65
2021/09/16 01:58:18;;;;;;;3.93;1.90;;;15.00;95.40;;;;;;2074048;28;20634;-65
2021/09/16 01:59:19;;;;;;;4.57;1.97;;;15.00;95.40;;;;;;2073785;28;20165;-66
2021/09/16 02:00:20;;;;;;;4.73;2.17;;;15.00;95.40;;;;;;2074090;28;20178;-66
2021/09/16 02:01:21;;;;;;;3.80;2.20;;;15.00;95.20;;;;;;2073681;28;20170;-65
2021/09/16 02:02:21;;;;;;;6.07;1.80;;;15.00;95.60;;;;;;2074019;28;20273;-65
2021/09/16 02:03:22;;;;;;;6.37;2.13;;;15.00;95.20;;;;;;2073897;28;20220;-64
2021/09/16 02:04:23;;;;;;;4.93;1.77;;;15.00;95.30;;;;;;2074004;28;20260;-65
2021/09/16 02:05:23;;;;;;;2.83;1.80;;;14.90;95.30;;;;;;2073110;28;20214;-65
2021/09/16 02:06:24;;;;;;;3.87;1.80;;;14.90;95.30;;;;;;2073641;28;20201;-65
2021/09/16 02:07:25;;;;;;;2.30;2.07;;;14.90;95.30;;;;;;2073810;28;20222;-66
2021/09/16 02:08:26;;;;;;;3.10;2.00;;;14.90;95.40;;;;;;2081576;28;20422;-65
2021/09/16 02:09:27;;;;;;;4.27;2.20;;;14.80;95.60;;;;;;2081360;28;20466;-65
2021/09/16 02:10:27;;;;;;;4.07;2.03;;;14.80;95.70;;;;;;2073777;28;20178;-65
2021/09/16 02:11:28;;;;;;;4.37;2.10;;;14.70;95.80;;;;;;2073605;28;20204;-66
2021/09/16 02:12:29;;;;;;;3.33;1.93;;;14.70;95.70;;;;;;2073718;28;20587;-65
2021/09/16 02:13:30;;;;;;;1.60;1.50;;;14.80;95.70;;;;;;2073843;28;20201;-65
2021/09/16 02:14:31;;;;;;;4.55;1.80;;;14.80;95.70;;;;;;2074054;28;20181;-64
2021/09/16 02:15:31;;;;;;;4.83;2.07;;;14.80;95.60;;;;;;2073810;28;20551;-65
2021/09/16 02:16:32;;;;;;;2.83;1.60;;;14.80;95.40;;;;;;2073960;28;20178;-65
2021/09/16 02:17:33;;;;;;;7.27;2.30;;;14.80;95.30;;;;;;2074102;28;20192;-65
2021/09/16 02:18:34;;;;;;;2.43;2.00;;;14.80;95.50;;;;;;2073876;28;20715;-65
2021/09/16 02:19:34;;;;;;;3.83;1.77;;;14.80;95.70;;;;;;2073862;28;20203;-65
2021/09/16 02:20:35;;;;;;;3.57;1.70;;;14.70;95.70;;;;;;2073684;28;20188;-65
2021/09/16 02:21:36;;;;;;;5.67;2.13;;;14.70;95.70;;;;;;2073637;28;20185;-65
2021/09/16 02:22:36;;;;;;;3.10;1.77;;;14.70;95.70;;;;;;2073759;28;20244;-65
2021/09/16 02:23:37;;;;;;;4.73;1.80;;;14.70;95.70;;;;;;2073861;28;20178;-65
2021/09/16 02:24:38;;;;;;;5.60;1.87;;;14.70;95.70;;;;;;2073745;28;20184;-65
2021/09/16 02:25:38;;;;;;;2.90;1.77;;;14.80;95.60;;;;;;2073748;28;20174;-65
2021/09/16 02:26:39;;;;;;;4.87;2.13;;;14.70;95.70;;;;;;2073994;28;20300;-65
2021/09/16 02:27:40;;;;;;;2.70;1.70;;;14.70;95.70;;;;;;2073709;28;20645;-65
2021/09/16 02:28:41;;;;;;;4.40;1.97;;;14.70;95.70;;;;;;2073858;28;20178;-65
2021/09/16 02:29:41;;;;;;;2.57;1.77;;;14.70;95.70;;;;;;2073907;28;20181;-65
2021/09/16 02:30:42;;;;;;;2.73;1.90;;;14.70;96.00;;;;;;2073768;28;20230;-67
2021/09/16 02:31:43;;;;;;;3.70;1.90;;;14.60;96.00;;;;;;2073607;28;20186;-65
2021/09/16 02:32:43;;;;;;;2.60;1.67;;;14.60;96.00;;;;;;2073797;28;20229;-66
2021/09/16 02:33:44;;;;;;;3.53;1.70;;;14.70;96.00;;;;;;2073823;28;20667;-64
2021/09/16 02:34:45;;;;;;;2.30;1.87;;;14.70;96.00;;;;;;2073552;28;20174;-65
2021/09/16 02:35:51;;;;;;;2.90;1.77;;;14.60;96.00;;;;;;2073827;28;20178;-66
2021/09/16 02:36:52;;;;;;;2.77;1.50;;;14.70;96.10;;;;;;2073031;28;20170;-67
2021/09/16 02:37:53;;;;;;;1.63;1.53;;;14.70;96.00;;;;;;2073261;28;20848;-64
2021/09/16 02:38:53;;;;;;;3.23;1.87;;;14.70;95.90;;;;;;2073723;28;20209;-65
2021/09/16 02:39:54;;;;;;;3.33;1.53;;;14.70;96.00;;;;;;2073718;28;20222;-64
2021/09/16 02:40:55;;;;;;;6.83;2.00;;;14.70;95.90;;;;;;2073579;28;20592;-64
2021/09/16 02:41:56;;;;;;;3.20;1.73;;;14.70;95.90;;;;;;2072633;28;20174;-68
2021/09/16 02:42:57;;;;;;;3.57;1.93;;;14.70;95.90;;;;;;2073173;28;20687;-64
2021/09/16 02:43:58;;;;;;;1.67;1.40;;;14.80;95.80;;;;;;2073759;28;20186;-64
2021/09/16 02:44:59;;;;;;;4.83;2.00;;;14.80;95.90;;;;;;2073731;28;20178;-64
2021/09/16 02:45:59;;;;;;;3.17;1.70;;;14.70;96.10;;;;;;2071111;28;20421;-65
2021/09/16 02:47:00;;;;;;;3.53;1.57;;;14.70;96.20;;;;;;2064901;28;20438;-65
2021/09/16 02:48:00;;;;;;;2.53;1.73;;;14.70;96.10;;;;;;2065289;28;20186;-66
2021/09/16 02:49:01;;;;;;;2.00;1.63;;;14.70;96.10;;;;;;2065375;28;20182;-66
2021/09/16 02:50:03;;;;;;;3.83;1.90;;;14.60;96.20;;;;;;2065642;28;20546;-66
2021/09/16 02:51:03;;;;;;;4.33;1.60;;;14.60;96.30;;;;;;2065240;28;20194;-67
2021/09/16 02:52:04;;;;;;;2.07;1.63;;;14.60;96.30;;;;;;2065502;28;20456;-66
2021/09/16 02:53:05;;;;;;;3.50;1.90;;;14.70;96.20;;;;;;2064997;28;20241;-66
2021/09/16 02:54:06;;;;;;;2.70;1.80;;;14.70;96.10;;;;;;2065549;28;20229;-66
2021/09/16 02:55:08;;;;;;;1.77;1.57;;;14.70;96.00;;;;;;2065424;28;20418;-65
2021/09/16 02:56:09;;;;;;;2.83;1.85;;;14.70;95.80;;;;;;2064783;28;20417;-65
2021/09/16 02:57:10;;;;;;;2.40;1.57;;;14.80;95.80;;;;;;2056782;28;20658;-65
2021/09/16 02:58:10;;;;;;;4.13;1.87;;;14.80;95.80;;;;;;2064907;28;20217;-65
2021/09/16 02:59:11;;;;;;;2.87;1.90;;;14.80;95.80;;;;;;2065421;28;20174;-66
2021/09/16 03:00:13;;;;;;;3.27;1.87;;;14.80;95.70;;;;;;2065389;28;20634;-66
2021/09/16 03:01:13;;;;;;;3.13;2.03;;;14.70;95.70;;;;;;2064364;28;20216;-65
2021/09/16 03:02:14;;;;;;;4.63;2.10;;;14.80;95.70;;;;;;2064676;28;20194;-67
2021/09/16 03:03:15;;;;;;;1.93;1.77;;;14.70;95.80;;;;;;2065427;28;20191;-66
2021/09/16 03:04:16;;;;;;;2.63;1.80;;;14.70;96.30;;;;;;2065363;28;20178;-65
2021/09/16 03:05:16;;;;;;;4.10;1.93;;;14.70;95.80;;;;;;2065384;28;20202;-66
2021/09/16 03:06:17;;;;;;;3.20;1.50;;;14.70;95.70;;;;;;2065277;28;20194;-65
2021/09/16 03:07:18;;;;;;;2.13;1.70;;;14.70;95.80;;;;;;2065341;28;20201;-65
2021/09/16 03:08:18;;;;;;;4.97;1.70;;;14.70;95.80;;;;;;2065524;28;20194;-66
2021/09/16 03:09:19;;;;;;;3.20;1.60;;;14.80;95.80;;;;;;2064740;28;20182;-65
2021/09/16 03:10:20;;;;;;;2.83;1.83;;;14.70;95.90;;;;;;2064846;28;20182;-65
2021/09/16 03:11:21;;;;;;;3.43;1.60;;;14.70;95.80;;;;;;2065002;28;20185;-65
2021/09/16 03:12:21;;;;;;;4.83;1.73;;;14.70;95.90;;;;;;2065235;28;20194;-65
2021/09/16 03:13:22;;;;;;;3.23;2.10;;;14.80;95.80;;;;;;2065487;28;20256;-65
2021/09/16 03:14:23;;;;;;;4.40;2.00;;;14.80;95.70;;;;;;2065351;28;20641;-65
2021/09/16 03:15:24;;;;;;;3.23;1.47;;;14.80;95.70;;;;;;2065368;28;20178;-65
2021/09/16 03:16:24;;;;;;;3.10;1.80;;;14.80;95.70;;;;;;2064821;28;20182;-65
2021/09/16 03:17:25;;;;;;;3.30;1.87;;;14.80;95.70;;;;;;2064706;28;20414;-65
2021/09/16 03:18:26;;;;;;;3.83;1.90;;;14.80;95.90;;;;;;2065357;28;20198;-65
2021/09/16 03:19:26;;;;;;;2.13;1.50;;;14.80;95.70;;;;;;2065204;28;20186;-65
2021/09/16 03:20:27;;;;;;;4.00;1.83;;;14.80;95.70;;;;;;2065347;28;20548;-65
2021/09/16 03:21:28;;;;;;;1.93;1.70;;;14.80;95.60;;;;;;2065158;28;20185;-65
2021/09/16 03:22:28;;;;;;;3.63;1.80;;;14.80;95.50;;;;;;2065296;28;20416;-65
2021/09/16 03:23:29;;;;;;;2.13;1.30;;;14.80;95.60;;;;;;2065261;28;20206;-65
2021/09/16 03:24:30;;;;;;;4.43;1.60;;;14.80;95.70;;;;;;2065203;28;20273;-65
2021/09/16 03:25:30;;;;;;;2.83;1.50;;;14.80;95.70;;;;;;2065309;28;20182;-65
2021/09/16 03:26:31;;;;;;;3.13;1.63;;;14.70;95.90;;;;;;2065340;28;20189;-65
2021/09/16 03:27:32;;;;;;;2.50;1.77;;;14.50;96.30;;;;;;2065353;28;20552;-66
2021/09/16 03:28:34;;;;;;;5.63;1.80;;;14.50;96.50;;;;;;2065185;28;20234;-65
2021/09/16 03:29:35;;;;;;;3.47;1.67;;;14.50;96.50;;;;;;2065114;28;20182;-66
2021/09/16 03:30:35;;;;;;;3.03;1.60;;;14.50;96.70;;;;;;2065084;28;20208;-65
2021/09/16 03:31:36;;;;;;;3.27;1.77;;;14.40;96.90;;;;;;2065079;28;20201;-65
2021/09/16 03:32:37;;;;;;;3.43;1.80;;;14.30;97.00;;;;;;2065035;28;20205;-67
2021/09/16 03:33:37;;;;;;;3.30;1.67;;;14.30;97.10;;;;;;2065313;28;20182;-65
2021/09/16 03:34:38;;;;;;;2.80;1.80;;;14.30;97.00;;;;;;2065211;28;20209;-65
2021/09/16 03:35:39;;;;;;;2.97;1.80;;;14.40;97.10;;;;;;2065120;28;20189;-67
2021/09/16 03:36:39;;;;;;;4.00;2.00;;;14.40;97.10;;;;;;2065177;28;20182;-65
2021/09/16 03:37:40;;;;;;;2.90;1.70;;;14.50;96.90;;;;;;2065230;28;20179;-65
2021/09/16 03:38:41;;;;;;;2.83;1.90;;;14.50;96.70;;;;;;2065101;28;20237;-66
2021/09/16 03:39:41;;;;;;;4.43;1.73;;;14.60;96.50;;;;;;2065288;28;20188;-65
2021/09/16 03:40:42;;;;;;;7.17;2.23;;;14.60;96.40;;;;;;2065071;28;20652;-65
2021/09/16 03:41:43;;;;;;;2.70;1.80;;;14.70;96.40;;;;;;2064861;28;20175;-67
2021/09/16 03:42:44;;;;;;;3.03;1.87;;;14.70;96.30;;;;;;2065103;28;20186;-65
2021/09/16 03:43:44;;;;;;;2.43;1.80;;;14.70;96.30;;;;;;2065294;28;20185;-66
2021/09/16 03:44:45;;;;;;;3.20;1.80;;;14.80;96.20;;;;;;2065273;28;20197;-67
2021/09/16 03:45:46;;;;;;;3.03;1.90;;;14.70;96.10;;;;;;2065164;28;20186;-65
2021/09/16 03:46:46;;;;;;;4.40;1.67;;;14.70;96.30;;;;;;2065038;28;20548;-66
2021/09/16 03:47:47;;;;;;;3.67;2.13;;;14.70;96.40;;;;;;2065154;28;20178;-66
2021/09/16 03:48:48;;;;;;;3.33;1.73;;;14.60;96.50;;;;;;2065104;28;20658;-66
2021/09/16 03:49:48;;;;;;;3.57;1.90;;;14.70;96.40;;;;;;2065305;28;20190;-65
2021/09/16 03:50:49;;;;;;;6.20;1.80;;;14.80;96.20;;;;;;2065053;28;20174;-66
2021/09/16 03:51:50;;;;;;;4.40;1.90;;;14.80;96.10;;;;;;2064946;28;20550;-64
2021/09/16 03:52:51;;;;;;;3.73;2.03;;;14.90;96.10;;;;;;2065256;28;20580;-65
2021/09/16 03:53:51;;;;;;;3.70;2.10;;;14.90;95.90;;;;;;2065059;28;20217;-66
2021/09/16 03:54:52;;;;;;;3.93;2.20;;;15.00;95.80;;;;;;2065319;28;20186;-65
2021/09/16 03:55:53;;;;;;;3.73;2.17;;;15.00;95.80;;;;;;2065242;28;20210;-66
2021/09/16 03:56:53;;;;;;;4.77;2.50;;;15.00;95.50;;;;;;2065295;28;20214;-66
2021/09/16 03:57:54;;;;;;;3.27;1.90;;;15.10;95.30;;;;;;2065194;28;20202;-66
2021/09/16 03:58:55;;;;;;;4.83;2.30;;;15.00;95.30;;;;;;2064313;28;20688;-66
2021/09/16 03:59:55;;;;;;;4.67;2.23;;;15.10;95.20;;;;;;2064392;28;20183;-66
2021/09/16 04:00:56;;;;;;;4.57;2.03;;;15.00;95.20;;;;;;2064857;28;20757;-66
2021/09/16 04:01:57;;;;;;;7.53;2.27;;;15.10;95.00;;;;;;2064605;28;20178;-65
2021/09/16 04:03:09;;;;;;;3.07;2.23;;;15.10;94.90;;;;;;2064837;28;20796;-65
2021/09/16 04:04:09;;;;;;;3.03;2.07;;;15.10;94.90;;;;;;2064931;28;20434;-66
2021/09/16 04:05:11;;;;;;;5.27;2.37;;;15.10;95.00;;;;;;2064392;28;20421;-65
2021/09/16 04:06:11;;;;;;;2.20;1.77;;;15.10;95.10;;;;;;2065886;28;20190;-65
2021/09/16 04:07:12;;;;;;;3.03;1.77;;;15.10;95.10;;;;;;2066497;28;20426;-66
2021/09/16 04:08:13;;;;;;;4.77;1.70;;;15.10;95.10;;;;;;2066385;28;20415;-66
2021/09/16 04:09:13;;;;;;;3.00;1.70;;;15.10;95.10;;;;;;2066431;28;20555;-66
2021/09/16 04:10:14;;;;;;;4.93;2.30;;;15.10;95.20;;;;;;2066446;28;20174;-66
2021/09/16 04:11:15;;;;;;;5.90;2.20;;;15.10;95.00;;;;;;2066254;28;20280;-65
2021/09/16 04:12:15;;;;;;;7.63;2.20;;;15.20;94.90;;;;;;2066369;28;20233;-66
2021/09/16 04:13:16;;;;;;;6.23;2.07;;;15.10;95.00;;;;;;2066327;28;20210;-65
2021/09/16 04:14:17;;;;;;;4.67;2.50;;;15.00;95.30;;;;;;2066401;28;20178;-65
2021/09/16 04:15:17;;;;;;;8.43;2.17;;;15.00;95.50;;;;;;2066860;28;20193;-65
2021/09/16 04:16:18;;;;;;;8.07;2.50;;;14.90;95.50;;;;;;2066595;28;20179;-65
2021/09/16 04:17:19;;;;;;;2.77;1.60;;;14.90;95.50;;;;;;2066558;28;20543;-65
2021/09/16 04:18:19;;;;;;;2.77;1.93;;;15.00;95.50;;;;;;2066345;28;20183;-65
2021/09/16 04:19:20;;;;;;;2.10;1.70;;;15.00;95.40;;;;;;2065730;28;20258;-66
2021/09/16 04:20:21;;;;;;;3.23;2.03;;;15.00;95.20;;;;;;2065736;28;20194;-65
2021/09/16 04:21:22;;;;;;;5.43;1.73;;;15.00;95.20;;;;;;2065498;28;20229;-66
2021/09/16 04:22:23;;;;;;;3.47;1.90;;;15.00;95.40;;;;;;2065841;28;20498;-65
2021/09/16 04:23:24;;;;;;;3.03;1.80;;;15.00;95.50;;;;;;2066579;28;20421;-66
2021/09/16 04:24:24;;;;;;;3.40;2.00;;;14.90;95.80;;;;;;2066393;28;20181;-65
2021/09/16 04:25:25;;;;;;;2.63;1.87;;;14.90;96.00;;;;;;2066424;28;20240;-65
2021/09/16 04:26:26;;;;;;;4.23;1.70;;;14.90;96.00;;;;;;2066334;28;20182;-65
2021/09/16 04:27:27;;;;;;;3.67;1.90;;;14.80;96.30;;;;;;2066459;28;20197;-66
2021/09/16 04:28:28;;;;;;;5.97;1.80;;;14.70;96.80;;;;;;2065759;28;20213;-66
2021/09/16 04:29:28;;;;;;;4.70;1.83;;;14.60;97.00;;;;;;2065779;28;20475;-65
2021/09/16 04:30:29;;;;;;;5.03;1.93;;;14.60;97.20;;;;;;2066486;28;20183;-66
2021/09/16 04:31:30;;;;;;;3.83;2.10;;;14.60;97.20;;;;;;2066212;28;20193;-66
2021/09/16 04:32:30;;;;;;;2.90;1.77;;;14.60;97.40;;;;;;2066130;28;20692;-65
2021/09/16 04:33:31;;;;;;;3.07;1.93;;;14.60;97.40;;;;;;2066436;28;20240;-66
2021/09/16 04:34:32;;;;;;;4.50;1.93;;;14.60;97.50;;;;;;2066489;28;20544;-66
2021/09/16 04:35:33;;;;;;;2.77;2.03;;;14.70;97.40;;;;;;2066364;28;20186;-66
2021/09/16 04:36:34;;;;;;;4.27;2.10;;;14.70;97.20;;;;;;2066203;28;20188;-67
2021/09/16 04:37:35;;;;;;;4.70;2.00;;;14.80;97.20;;;;;;2066353;28;20185;-66
2021/09/16 04:38:36;;;;;;;4.67;2.10;;;14.80;97.10;;;;;;2066313;28;20428;-66
2021/09/16 04:39:37;;;;;;;4.13;1.90;;;14.90;96.90;;;;;;2066268;28;20971;-65
2021/09/16 04:40:37;;;;;;;3.57;2.23;;;15.00;96.70;;;;;;2066272;28;20237;-66
2021/09/16 04:41:38;;;;;;;5.30;2.80;;;15.00;96.50;;;;;;2065974;28;20229;-66
2021/09/16 04:42:40;;;;;;;3.57;2.00;;;15.10;96.40;;;;;;2066058;28;20229;-66
2021/09/16 04:43:40;;;;;;;6.53;2.60;;;15.10;96.30;;;;;;2066240;28;20178;-67
2021/09/16 04:44:41;;;;;;;4.70;2.53;;;15.10;96.10;;;;;;2066255;28;20765;-66
2021/09/16 04:45:42;;;;;;;5.77;2.70;;;15.00;96.10;;;;;;2066157;28;20182;-65
2021/09/16 04:46:42;;;;;;;6.37;3.13;;;15.10;96.10;;;;;;2066177;28;20185;-67
2021/09/16 04:47:43;;;;;;;3.13;2.77;;;15.00;96.10;;;;;;2066055;28;20283;-66
2021/09/16 04:48:43;;;;;;;6.17;3.20;;;15.00;95.90;;;;;;2066179;28;20265;-65
2021/09/16 04:49:44;;;;;;;3.87;2.50;;;15.10;95.80;;;;;;2066228;28;20645;-65
2021/09/16 04:50:45;;;;;;;6.23;2.60;;;15.10;95.80;;;;;;2065998;28;20213;-66
2021/09/16 04:51:45;;;;;;;5.47;2.57;;;15.10;95.80;;;;;;2065748;28;20186;-66
2021/09/16 04:52:46;;;;;;;5.83;2.80;;;15.10;95.80;;;;;;2065999;28;20207;-66
2021/09/16 04:53:47;;;;;;;8.60;2.83;;;15.10;95.80;;;;;;2065998;28;20182;-65
2021/09/16 04:54:48;;;;;;;4.87;2.90;;;15.10;95.90;;;;;;2066037;28;20649;-66
2021/09/16 04:55:48;;;;;;;3.90;2.57;;;15.10;95.90;;;;;;2065888;28;20649;-66
2021/09/16 04:56:49;;;;;;;7.13;2.83;;;15.20;95.80;;;;;;2066127;28;20552;-65
2021/09/16 04:57:50;;;;;;;4.13;2.50;;;15.20;95.80;;;;;;2066086;28;20179;-65
2021/09/16 04:58:51;;;;;;;5.07;2.77;;;15.20;95.80;;;;;;2066066;28;20233;-67
2021/09/16 04:59:53;;;;;;;5.57;2.33;;;15.20;95.80;;;;;;2065970;28;20206;-66
2021/09/16 05:00:54;;;;;;;4.87;2.30;;;15.20;95.80;;;;;;2066001;28;20316;-65
2021/09/16 05:01:55;;;;;;;5.77;2.30;;;15.20;95.80;;;;;;2065602;28;20916;-66
2021/09/16 05:02:55;;;;;;;4.77;2.43;;;15.20;95.80;;;;;;2066012;28;20183;-66
2021/09/16 05:03:56;;;;;;;4.40;2.27;;;15.20;95.80;;;;;;2065957;28;20183;-66
2021/09/16 05:04:57;;;;;;;6.10;2.87;;;15.20;95.80;;;;;;2065984;28;20179;-65
2021/09/16 05:05:58;;;;;;;4.97;2.27;;;15.20;95.80;;;;;;2065849;28;20186;-65
2021/09/16 05:06:59;;;;;;;4.57;2.45;;;15.20;95.80;;;;;;2065821;28;20565;-65
2021/09/16 05:08:00;;;;;;;7.10;3.00;;;15.20;95.80;;;;;;2065909;28;20186;-65
2021/09/16 05:09:00;;;;;;;4.17;2.20;;;15.20;95.80;;;;;;2066013;28;20434;-65
2021/09/16 05:10:02;;;;;;;3.37;2.23;;;15.20;96.30;;;;;;2065912;28;20265;-66
2021/09/16 05:11:03;;;;;;;4.17;2.43;;;15.10;95.80;;;;;;2065890;28;20248;-65
2021/09/16 05:12:04;;;;;;;6.43;3.00;;;15.10;95.90;;;;;;2065880;28;20881;-66
2021/09/16 05:13:05;;;;;;;5.30;3.40;;;15.20;95.90;;;;;;2066013;28;20220;-66
2021/09/16 05:14:05;;;;;;;7.90;3.40;;;15.10;95.90;;;;;;2065887;28;20480;-66
2021/09/16 05:15:07;;;;;;;5.40;3.43;;;15.10;95.80;;;;;;2065894;28;20186;-65
2021/09/16 05:16:07;;;;;;;7.30;4.00;;;15.20;95.90;;;;;;2065536;28;20209;-66
2021/09/16 05:17:08;;;;;;;5.67;3.80;;;15.20;95.90;;;;;;2065768;28;20560;-65
2021/09/16 05:18:09;;;;;;;5.60;3.60;;;15.10;96.00;;;;;;2065727;28;20257;-66